Time;durP1;ratioP1;P1;durP2;ratioP2;P2;SDS_P1;SDS_P2;PMS_P1;PMS_P2;Temp;Humidity;BMP_temperature;BMP_pressure;BME280_temperature;BME280_humidity;BME280_pressure;Samples;Min_cycle;Max_cycle;Signal;HPM_P1;HPM_P2
2024/01/14 00:01:05;;;;;;;;;2.00;1.25;;;;;5.41;97.19;101511.53;4990118;28;11340;-66
2024/01/14 00:03:32;;;;;;;;;1.50;1.50;;;;;5.36;97.41;101510.31;4999163;28;11469;-66
2024/01/14 00:05:59;;;;;;;;;3.00;1.00;;;;;5.41;96.75;101505.38;5003023;28;11587;-66
2024/01/14 00:08:26;;;;;;;;;1.50;1.00;;;;;5.39;96.67;101499.34;4982750;28;11459;-66
2024/01/14 00:10:53;;;;;;;;;1.00;1.00;;;;;5.45;96.90;101502.25;4991796;28;11561;-67
2024/01/14 00:13:19;;;;;;;;;0.75;0.75;;;;;5.47;96.92;101494.13;4989809;28;11312;-66
2024/01/14 00:15:46;;;;;;;;;2.00;2.00;;;;;5.46;97.06;101495.09;5005965;28;11213;-66
2024/01/14 00:18:13;;;;;;;;;4.00;1.00;;;;;5.48;97.02;101493.13;4987702;28;11332;-66
2024/01/14 00:20:39;;;;;;;;;1.00;1.00;;;;;5.50;96.53;101496.50;4990552;28;12200;-67
2024/01/14 00:23:06;;;;;;;;;0.75;0.75;;;;;5.54;96.52;101492.53;4989668;28;11325;-67
2024/01/14 00:25:33;;;;;;;;;7.00;5.00;;;;;5.51;96.66;101487.50;4998389;28;11461;-66
2024/01/14 00:27:59;;;;;;;;;3.25;2.00;;;;;5.57;96.08;101486.06;4993867;28;11522;-67
2024/01/14 00:30:26;;;;;;;;;5.25;3.00;;;;;5.57;96.39;101476.22;4991745;28;11462;-67
2024/01/14 00:32:53;;;;;;;;;1.75;1.75;;;;;5.60;96.56;101478.63;4989025;28;11448;-66
2024/01/14 00:35:19;;;;;;;;;3.25;1.50;;;;;5.62;96.65;101468.63;4990279;28;11464;-66
2024/01/14 00:37:47;;;;;;;;;2.50;1.50;;;;;5.64;96.42;101466.66;4991666;28;11455;-67
2024/01/14 00:40:14;;;;;;;;;4.00;2.00;;;;;5.64;96.60;101461.31;5004321;28;11459;-67
2024/01/14 00:42:40;;;;;;;;;3.25;2.00;;;;;5.64;96.14;101463.16;4970286;28;11439;-67
2024/01/14 00:45:07;;;;;;;;;5.00;2.75;;;;;5.63;95.85;101456.09;4991380;28;11471;-66
2024/01/14 00:47:34;;;;;;;;;2.00;2.00;;;;;5.63;95.76;101464.09;4990035;28;11479;-66
2024/01/14 00:50:00;;;;;;;;;3.50;3.25;;;;;5.61;96.25;101453.59;4989988;28;11224;-67
2024/01/14 00:52:27;;;;;;;;;4.50;4.00;;;;;5.60;96.09;101449.25;4991060;28;11239;-67
2024/01/14 00:54:55;;;;;;;;;5.25;4.00;;;;;5.60;96.12;101464.44;4988236;28;11596;-67
2024/01/14 00:57:21;;;;;;;;;4.25;4.00;;;;;5.59;95.96;101449.38;4991223;28;11335;-67
2024/01/14 00:59:48;;;;;;;;;4.50;2.50;;;;;5.60;96.08;101441.22;4990874;28;11453;-67
2024/01/14 01:02:15;;;;;;;;;5.50;4.25;;;;;5.62;96.31;101439.22;4990689;28;11437;-67
2024/01/14 01:04:41;;;;;;;;;7.25;7.25;;;;;5.58;95.78;101445.03;5002825;28;11464;-67
2024/01/14 01:07:08;;;;;;;;;5.50;3.25;;;;;5.55;95.83;101440.84;4990918;28;11491;-67
2024/01/14 01:09:38;;;;;;;;;2.75;2.75;;;;;5.53;96.68;101432.13;4990091;28;11488;-66
2024/01/14 01:12:04;;;;;;;;;2.00;2.00;;;;;5.53;96.12;101425.94;4990670;28;11557;-67
2024/01/14 01:14:31;;;;;;;;;5.50;5.50;;;;;5.52;95.83;101426.94;4989054;28;11546;-67
2024/01/14 01:16:57;;;;;;;;;5.00;5.00;;;;;5.46;95.99;101425.66;4987447;28;11454;-68
2024/01/14 01:19:24;;;;;;;;;6.00;5.00;;;;;5.43;96.15;101424.16;4990159;28;12222;-66
2024/01/14 01:21:51;;;;;;;;;2.75;2.75;;;;;5.45;95.81;101414.16;4992775;28;11473;-67
2024/01/14 01:24:18;;;;;;;;;2.50;2.50;;;;;5.40;95.99;101410.25;4990005;28;11427;-65
2024/01/14 01:26:44;;;;;;;;;2.00;2.00;;;;;5.40;96.04;101403.09;4989367;28;11462;-65
2024/01/14 01:29:11;;;;;;;;;2.25;2.25;;;;;5.35;95.23;101402.69;4990634;28;11495;-66
2024/01/14 01:31:37;;;;;;;;;1.00;1.00;;;;;5.30;95.24;101406.75;4988243;28;11594;-66
2024/01/14 01:34:14;;;;;;;;;2.75;2.75;;;;;5.29;95.26;101403.25;5001508;28;11195;-66
2024/01/14 01:36:41;;;;;;;;;6.50;2.50;;;;;5.31;94.93;101408.47;4988136;28;11457;-67
2024/01/14 01:39:08;;;;;;;;;2.50;2.50;;;;;5.32;95.26;101402.13;4989308;28;11463;-66
2024/01/14 01:41:34;;;;;;;;;1.00;1.00;;;;;5.27;95.32;101399.06;4987124;28;11453;-66
2024/01/14 01:44:01;;;;;;;;;2.00;2.00;;;;;5.28;95.34;101398.91;4987557;28;11472;-66
2024/01/14 01:46:28;;;;;;;;;4.00;1.00;;;;;5.28;95.08;101390.91;4990570;28;11472;-66
2024/01/14 01:48:55;;;;;;;;;3.00;2.00;;;;;5.34;95.67;101400.97;4990434;28;11442;-66
2024/01/14 01:51:22;;;;;;;;;1.25;1.00;;;;;5.35;95.11;101400.03;4989297;28;11531;-66
2024/01/14 01:53:48;;;;;;;;;1.50;1.00;;;;;5.40;95.60;101404.91;4983458;28;11466;-66
2024/01/14 01:56:16;;;;;;;;;1.50;1.00;;;;;5.44;94.85;101411.66;4981710;28;11543;-66
2024/01/14 01:58:43;;;;;;;;;2.00;2.00;;;;;5.43;94.40;101413.47;4990401;28;11330;-66
2024/01/14 02:01:10;;;;;;;;;4.25;1.25;;;;;5.48;94.62;101412.19;4989548;28;11491;-66
2024/01/14 02:03:37;;;;;;;;;1.00;1.00;;;;;5.50;94.89;101405.69;4983515;28;11480;-66
2024/01/14 02:06:05;;;;;;;;;3.50;1.25;;;;;5.55;94.66;101391.91;4988864;28;11217;-66
2024/01/14 02:08:32;;;;;;;;;1.25;1.25;;;;;5.59;95.06;101387.94;4990432;28;11323;-66
2024/01/14 02:11:00;;;;;;;;;2.00;2.00;;;;;5.62;94.83;101387.66;5005632;28;12050;-66
2024/01/14 02:13:26;;;;;;;;;1.00;1.00;;;;;5.60;94.05;101385.16;4988631;28;11459;-67
2024/01/14 02:15:53;;;;;;;;;2.50;1.50;;;;;5.62;94.10;101388.50;5004851;28;11539;-67
2024/01/14 02:18:20;;;;;;;;;2.75;2.75;;;;;5.62;94.88;101383.16;4989279;28;11534;-67
2024/01/14 02:20:46;;;;;;;;;4.50;2.75;;;;;5.63;94.55;101376.84;4986605;28;11520;-67
2024/01/14 02:23:19;;;;;;;;;3.25;3.25;;;;;5.63;94.60;101379.50;4994835;28;11484;-66
2024/01/14 02:25:46;;;;;;;;;1.25;1.25;;;;;5.65;94.38;101371.34;4990301;28;11457;-66
2024/01/14 02:28:14;;;;;;;;;2.25;1.75;;;;;5.65;94.39;101368.66;4987159;28;11280;-66
2024/01/14 02:30:43;;;;;;;;;3.50;3.50;;;;;5.63;93.89;101367.97;5004196;28;11497;-66
2024/01/14 02:33:10;;;;;;;;;1.00;1.00;;;;;5.58;93.96;101365.75;4993040;28;11612;-66
2024/01/14 02:35:39;;;;;;;;;1.25;1.25;;;;;5.56;94.79;101367.75;4971226;28;11463;-67
2024/01/14 02:38:06;;;;;;;;;2.25;1.25;;;;;5.54;94.19;101367.03;4988629;28;11103;-66
2024/01/14 02:40:34;;;;;;;;;2.00;1.00;;;;;5.52;94.69;101358.34;4991999;28;11541;-67
2024/01/14 02:43:01;;;;;;;;;2.00;0.00;;;;;5.53;94.68;101352.00;5010204;28;11199;-66
2024/01/14 02:45:33;;;;;;;;;2.00;1.75;;;;;5.55;94.81;101351.84;4993625;28;11198;-66
2024/01/14 02:47:59;;;;;;;;;0.75;0.75;;;;;5.58;94.26;101349.72;4976214;28;11224;-67
2024/01/14 02:50:26;;;;;;;;;2.00;1.75;;;;;5.60;94.79;101344.25;4992859;28;11039;-67
2024/01/14 02:52:53;;;;;;;;;1.00;1.00;;;;;5.60;94.41;101337.06;4987090;28;11478;-67
2024/01/14 02:55:19;;;;;;;;;2.00;2.00;;;;;5.58;94.13;101333.69;4991849;28;11150;-67
2024/01/14 02:57:47;;;;;;;;;1.00;1.00;;;;;5.55;94.43;101333.16;4993301;28;11153;-67
2024/01/14 03:00:15;;;;;;;;;2.00;2.00;;;;;5.51;94.34;101324.63;4992356;28;11451;-67
2024/01/14 03:02:41;;;;;;;;;2.00;2.00;;;;;5.50;94.57;101324.75;4992811;28;11442;-66
2024/01/14 03:05:08;;;;;;;;;2.00;2.00;;;;;5.49;94.11;101318.59;4992043;28;11439;-67
2024/01/14 03:07:35;;;;;;;;;2.75;1.00;;;;;5.51;94.20;101324.63;4988234;28;12016;-66
2024/01/14 03:10:02;;;;;;;;;3.25;3.25;;;;;5.50;94.11;101317.59;4992489;28;11463;-67
2024/01/14 03:12:28;;;;;;;;;2.75;2.75;;;;;5.45;93.98;101315.38;4992861;28;11473;-66
2024/01/14 03:14:55;;;;;;;;;5.50;3.75;;;;;5.38;94.47;101308.94;4989082;28;11432;-67
2024/01/14 03:17:22;;;;;;;;;2.00;2.00;;;;;5.36;94.10;101313.59;4990774;28;12207;-67
2024/01/14 03:19:48;;;;;;;;;4.00;4.00;;;;;5.33;94.62;101307.72;5006863;28;11489;-66
2024/01/14 03:22:15;;;;;;;;;2.00;2.00;;;;;5.31;94.48;101313.22;4987857;28;11458;-67
2024/01/14 03:24:42;;;;;;;;;2.75;1.75;;;;;5.31;94.97;101310.53;4988483;28;11465;-67
2024/01/14 03:27:08;;;;;;;;;2.00;2.00;;;;;5.32;94.42;101309.53;4985976;28;11466;-67
2024/01/14 03:29:35;;;;;;;;;2.00;2.00;;;;;5.32;94.69;101304.22;4991826;28;11459;-66
2024/01/14 03:32:02;;;;;;;;;4.00;2.00;;;;;5.32;94.48;101296.19;4991017;28;11492;-67
2024/01/14 03:34:29;;;;;;;;;4.25;4.00;;;;;5.33;94.57;101297.88;4990766;28;11453;-66
2024/01/14 03:36:55;;;;;;;;;1.00;1.00;;;;;5.32;95.23;101293.53;5003325;28;11605;-67
2024/01/14 03:39:22;;;;;;;;;1.50;1.50;;;;;5.31;94.63;101289.19;4984028;28;11466;-67
2024/01/14 03:41:48;;;;;;;;;3.25;1.00;;;;;5.28;94.71;101293.97;4989444;28;11205;-66
2024/01/14 03:44:15;;;;;;;;;4.25;3.00;;;;;5.25;94.79;101292.44;4999697;28;11445;-66
2024/01/14 03:46:41;;;;;;;;;1.00;1.00;;;;;5.25;95.03;101294.25;4992034;28;11472;-66
2024/01/14 03:49:08;;;;;;;;;1.00;1.00;;;;;5.26;94.93;101287.94;4992645;28;11912;-66
2024/01/14 03:51:35;;;;;;;;;1.00;1.00;;;;;5.24;94.97;101282.75;4989897;28;11313;-66
2024/01/14 03:54:01;;;;;;;;;0.25;0.25;;;;;5.23;94.69;101282.91;4987866;28;11446;-66
2024/01/14 03:56:28;;;;;;;;;1.00;1.00;;;;;5.25;94.82;101280.91;5000167;28;11469;-66
2024/01/14 03:58:55;;;;;;;;;1.50;1.50;;;;;5.21;94.70;101277.72;4990854;28;11469;-66
2024/01/14 04:01:22;;;;;;;;;0.00;0.00;;;;;5.19;94.95;101269.84;4992091;28;11464;-66
2024/01/14 04:03:49;;;;;;;;;0.75;0.75;;;;;5.17;95.07;101271.00;4992005;28;11057;-66
2024/01/14 04:06:19;;;;;;;;;0.50;0.50;;;;;5.17;95.24;101268.31;4986568;28;11209;-66
2024/01/14 04:08:45;;;;;;;;;0.00;0.00;;;;;5.17;94.96;101266.47;4988421;28;11223;-66
2024/01/14 04:11:12;;;;;;;;;0.75;0.75;;;;;5.17;95.51;101262.97;4991423;28;11911;-67
2024/01/14 04:13:39;;;;;;;;;0.50;0.00;;;;;5.16;95.13;101256.81;4992082;28;11212;-67
2024/01/14 04:16:07;;;;;;;;;0.75;0.75;;;;;5.15;95.22;101255.13;4990676;28;11454;-67
2024/01/14 04:18:37;;;;;;;;;0.25;0.00;;;;;5.16;94.98;101251.47;4995595;28;12198;-67
2024/01/14 04:21:04;;;;;;;;;0.75;0.00;;;;;5.16;94.68;101255.97;4986148;28;11257;-68
2024/01/14 04:23:30;;;;;;;;;0.75;0.00;;;;;5.15;94.57;101246.28;4988782;28;11426;-67
2024/01/14 04:25:57;;;;;;;;;0.75;0.75;;;;;5.14;94.64;101244.59;5003620;28;11526;-66
2024/01/14 04:28:24;;;;;;;;;0.00;0.00;;;;;5.12;94.60;101242.09;4990480;28;11359;-66
2024/01/14 04:30:52;;;;;;;;;0.25;0.25;;;;;5.11;95.17;101237.75;4991349;28;11551;-67
2024/01/14 04:33:19;;;;;;;;;0.50;0.00;;;;;5.11;94.68;101234.25;4991332;28;11455;-66
2024/01/14 04:35:46;;;;;;;;;0.00;0.00;;;;;5.08;94.69;101229.19;4990260;28;11480;-67
2024/01/14 04:38:12;;;;;;;;;0.00;0.00;;;;;5.08;94.45;101227.34;4995426;28;11459;-66
2024/01/14 04:40:39;;;;;;;;;0.00;0.00;;;;;5.06;93.89;101225.81;4991532;28;11553;-66
2024/01/14 04:43:06;;;;;;;;;0.00;0.00;;;;;5.02;94.16;101225.28;4991314;28;11431;-66
2024/01/14 04:45:34;;;;;;;;;1.00;1.00;;;;;5.00;94.37;101219.25;4988912;28;11477;-66
2024/01/14 04:48:01;;;;;;;;;0.25;0.25;;;;;5.00;94.64;101221.09;4989179;28;11617;-66
2024/01/14 04:50:28;;;;;;;;;0.00;0.00;;;;;4.99;94.34;101220.25;4990240;28;11440;-67
2024/01/14 04:52:55;;;;;;;;;1.00;1.00;;;;;4.99;94.38;101212.25;4990507;28;12012;-66
2024/01/14 04:55:21;;;;;;;;;2.00;1.00;;;;;4.99;94.64;101208.75;4986915;28;11447;-66
2024/01/14 04:57:48;;;;;;;;;0.75;0.75;;;;;4.96;94.78;101210.72;4991146;28;11446;-67
2024/01/14 05:00:15;;;;;;;;;0.25;0.25;;;;;4.97;93.99;101200.88;4990941;28;11459;-66
2024/01/14 05:02:41;;;;;;;;;1.25;1.25;;;;;4.98;94.54;101199.88;4988535;28;11552;-67
2024/01/14 05:05:08;;;;;;;;;1.25;0.75;;;;;4.95;94.47;101190.38;4988728;28;11453;-67
2024/01/14 05:07:35;;;;;;;;;3.50;1.00;;;;;4.96;94.71;101200.03;4990691;28;11448;-67
2024/01/14 05:10:01;;;;;;;;;0.00;0.00;;;;;4.97;94.89;101196.38;4990431;28;11481;-66
2024/01/14 05:12:28;;;;;;;;;1.00;1.00;;;;;4.97;94.33;101191.03;4990596;28;11469;-67
2024/01/14 05:14:55;;;;;;;;;0.75;0.00;;;;;4.96;94.38;101196.53;4987097;28;11457;-67
2024/01/14 05:17:21;;;;;;;;;0.00;0.00;;;;;4.97;94.52;101196.38;4990736;28;11452;-66
2024/01/14 05:19:48;;;;;;;;;0.25;0.25;;;;;4.96;94.11;101193.88;4990883;28;11455;-66
2024/01/14 05:22:14;;;;;;;;;1.00;1.00;;;;;4.95;94.65;101187.69;4972586;28;11525;-66
2024/01/14 05:24:42;;;;;;;;;0.25;0.25;;;;;4.94;94.30;101188.69;4986564;28;11447;-67
2024/01/14 05:27:13;;;;;;;;;4.00;0.75;;;;;4.92;94.16;101193.31;4987757;28;11453;-66
2024/01/14 05:29:40;;;;;;;;;1.00;1.00;;;;;4.90;94.52;101189.13;4989335;28;11466;-67
2024/01/14 05:32:08;;;;;;;;;2.00;2.00;;;;;4.84;94.21;101179.88;4986034;28;11476;-67
2024/01/14 05:34:35;;;;;;;;;2.25;2.25;;;;;4.80;94.55;101175.84;4985842;28;11450;-67
2024/01/14 05:37:01;;;;;;;;;0.75;0.75;;;;;4.82;94.06;101179.22;5004387;28;11596;-66
2024/01/14 05:39:28;;;;;;;;;1.25;1.00;;;;;4.83;94.39;101178.22;4989354;28;12405;-66
2024/01/14 05:41:55;;;;;;;;;1.50;1.50;;;;;4.84;94.19;101176.38;4987708;28;11521;-67
2024/01/14 05:44:21;;;;;;;;;4.75;2.00;;;;;4.83;94.27;101178.22;4989384;28;11440;-67
2024/01/14 05:46:48;;;;;;;;;1.00;1.00;;;;;4.83;93.98;101167.56;4989295;28;11439;-66
2024/01/14 05:49:14;;;;;;;;;1.75;1.00;;;;;4.86;93.83;101171.72;4990466;28;11554;-67
2024/01/14 05:51:41;;;;;;;;;1.00;1.00;;;;;4.87;93.85;101165.44;4988679;28;11444;-66
2024/01/14 05:54:08;;;;;;;;;1.00;1.00;;;;;4.87;93.95;101168.09;4990413;28;11512;-67
2024/01/14 05:56:35;;;;;;;;;0.75;0.75;;;;;4.86;93.55;101167.25;4990510;28;12207;-67
2024/01/14 05:59:02;;;;;;;;;0.25;0.25;;;;;4.85;93.70;101162.88;4989584;28;11451;-67
2024/01/14 06:01:29;;;;;;;;;3.00;1.00;;;;;4.85;93.68;101157.56;4983843;28;11473;-67
2024/01/14 06:03:56;;;;;;;;;0.00;0.00;;;;;4.82;93.88;101159.69;4989620;28;11478;-66
2024/01/14 06:06:23;;;;;;;;;0.50;0.50;;;;;4.78;94.16;101150.28;4994448;28;11573;-67
2024/01/14 06:08:49;;;;;;;;;1.00;0.00;;;;;4.75;93.87;101148.78;4994274;28;11537;-67
2024/01/14 06:11:17;;;;;;;;;1.25;1.00;;;;;4.72;94.04;101149.91;4988558;28;11481;-67
2024/01/14 06:13:43;;;;;;;;;1.00;1.00;;;;;4.70;93.78;101143.06;4991854;28;11573;-67
2024/01/14 06:16:10;;;;;;;;;1.00;1.00;;;;;4.67;93.95;101143.34;4991497;28;12374;-67
2024/01/14 06:18:39;;;;;;;;;0.75;0.75;;;;;4.67;93.48;101132.69;4994040;28;11439;-67
2024/01/14 06:21:06;;;;;;;;;4.00;4.00;;;;;4.59;93.76;101133.44;4986685;28;11494;-67
2024/01/14 06:23:35;;;;;;;;;1.00;1.00;;;;;4.56;93.30;101133.72;4993493;28;11458;-67
2024/01/14 06:26:01;;;;;;;;;2.00;2.00;;;;;4.53;94.25;101135.84;4990070;28;11574;-67
2024/01/14 06:28:28;;;;;;;;;3.75;2.50;;;;;4.54;93.70;101132.19;4992724;28;11478;-66
2024/01/14 06:30:54;;;;;;;;;5.25;5.00;;;;;4.53;93.64;101135.84;4988272;28;12195;-67
2024/01/14 06:33:21;;;;;;;;;4.25;3.00;;;;;4.53;93.99;101125.16;4993559;28;11457;-66
2024/01/14 06:35:48;;;;;;;;;4.00;3.50;;;;;4.54;94.06;101125.03;4993825;28;11527;-67
2024/01/14 06:38:14;;;;;;;;;4.00;2.00;;;;;4.54;93.65;101121.50;4988700;28;12330;-67
2024/01/14 06:40:41;;;;;;;;;6.00;4.75;;;;;4.51;93.99;101128.00;4992004;28;12306;-67
2024/01/14 06:43:14;;;;;;;;;6.00;5.50;;;;;4.48;94.25;101114.97;4992201;28;11485;-67
2024/01/14 06:45:40;;;;;;;;;5.00;5.00;;;;;4.47;93.92;101110.63;4993661;28;11490;-67
2024/01/14 06:48:07;;;;;;;;;7.75;4.75;;;;;4.46;94.03;101108.94;4989609;28;11505;-67
2024/01/14 06:50:34;;;;;;;;;9.25;6.00;;;;;4.44;93.86;101101.09;4990744;28;11904;-66
2024/01/14 06:53:00;;;;;;;;;5.25;5.00;;;;;4.42;93.89;101097.75;4993224;28;11547;-66
2024/01/14 06:55:27;;;;;;;;;6.00;6.00;;;;;4.40;93.83;101099.69;4990797;28;12267;-66
2024/01/14 06:57:53;;;;;;;;;4.50;4.00;;;;;4.40;94.03;101098.88;5005154;28;11485;-66
2024/01/14 07:00:20;;;;;;;;;8.00;5.50;;;;;4.39;93.67;101095.38;4991016;28;11468;-66
2024/01/14 07:02:47;;;;;;;;;8.00;5.50;;;;;4.40;94.09;101096.19;4991796;28;11509;-66
2024/01/14 07:05:13;;;;;;;;;8.00;8.00;;;;;4.41;94.32;101097.88;4993322;28;11489;-66
2024/01/14 07:07:40;;;;;;;;;5.00;5.00;;;;;4.38;93.83;101100.84;4992630;28;11552;-66
2024/01/14 07:10:07;;;;;;;;;11.00;9.00;;;;;4.37;93.96;101096.50;4989143;28;12269;-66
2024/01/14 07:12:35;;;;;;;;;8.25;6.00;;;;;4.36;93.67;101094.81;4991450;28;11575;-66
2024/01/14 07:15:01;;;;;;;;;9.75;9.25;;;;;4.32;94.15;101093.44;5007861;28;11487;-66
2024/01/14 07:17:28;;;;;;;;;14.50;10.25;;;;;4.31;94.14;101097.94;4992870;28;11475;-66
2024/01/14 07:20:15;;;;;;;;;10.75;8.50;;;;;4.30;94.30;101090.94;4979875;28;11549;-67
2024/01/14 07:22:42;;;;;;;;;10.75;9.75;;;;;4.28;94.55;101092.88;4990392;28;11590;-67
2024/01/14 07:25:10;;;;;;;;;9.00;9.00;;;;;4.25;94.35;101095.84;4992718;28;11537;-67
2024/01/14 07:27:37;;;;;;;;;11.75;11.75;;;;;4.24;94.22;101102.16;4991560;28;11557;-66
2024/01/14 07:30:05;;;;;;;;;24.00;14.25;;;;;4.22;94.21;101093.50;4988944;28;13827;-67
2024/01/14 07:32:32;;;;;;;;;12.25;11.25;;;;;4.22;94.09;101093.50;4990984;28;12275;-68
2024/01/14 07:34:58;;;;;;;;;14.25;12.50;;;;;4.22;94.34;101093.50;4991637;28;11500;-66
2024/01/14 07:37:25;;;;;;;;;11.75;11.50;;;;;4.22;94.45;101097.00;4992856;28;11608;-67
2024/01/14 07:39:51;;;;;;;;;12.50;11.00;;;;;4.22;94.38;101094.31;4985418;28;11692;-67
2024/01/14 07:42:18;;;;;;;;;15.25;13.25;;;;;4.24;94.37;101093.34;4984686;28;11570;-66
2024/01/14 07:44:45;;;;;;;;;20.25;16.00;;;;;4.20;94.12;101087.44;4991341;28;11708;-67
2024/01/14 07:47:12;;;;;;;;;17.25;15.25;;;;;4.20;94.47;101093.63;4992457;28;11606;-67
2024/01/14 07:49:38;;;;;;;;;17.00;14.25;;;;;4.18;94.09;101097.44;4991661;28;11658;-66
2024/01/14 07:52:05;;;;;;;;;23.50;18.25;;;;;4.16;94.03;101100.22;4996574;28;12566;-66
2024/01/14 07:54:32;;;;;;;;;19.00;17.25;;;;;4.15;93.67;101100.38;4988767;28;11598;-66
2024/01/14 07:56:58;;;;;;;;;22.75;20.25;;;;;4.15;94.25;101097.72;4992302;28;11705;-66
2024/01/14 07:59:25;;;;;;;;;18.75;16.75;;;;;4.00;94.34;101091.19;4991237;28;11712;-66
2024/01/14 08:01:51;;;;;;;;;23.75;19.25;;;;;3.91;94.83;101088.41;4989390;28;11558;-66
2024/01/14 08:04:18;;;;;;;;;17.00;14.25;;;;;4.00;95.27;101086.69;4992357;28;12556;-66
2024/01/14 08:06:45;;;;;;;;;19.25;15.75;;;;;4.08;95.06;101083.28;4989849;28;11580;-66
2024/01/14 08:09:12;;;;;;;;;18.25;15.00;;;;;4.16;95.18;101089.56;4991153;28;11536;-66
2024/01/14 08:11:39;;;;;;;;;17.00;14.00;;;;;4.18;94.45;101082.28;4990819;28;11627;-68
2024/01/14 08:14:05;;;;;;;;;19.00;16.00;;;;;4.20;95.19;101082.13;4991004;28;11716;-66
2024/01/14 08:16:32;;;;;;;;;16.50;15.75;;;;;4.22;94.64;101089.00;4991336;28;11585;-66
2024/01/14 08:18:58;;;;;;;;;18.50;17.25;;;;;4.22;94.80;101080.16;4997778;28;11584;-66
2024/01/14 08:21:25;;;;;;;;;17.00;13.50;;;;;4.26;94.70;101091.38;4992577;28;11658;-65
2024/01/14 08:23:52;;;;;;;;;17.75;15.00;;;;;4.29;94.39;101093.72;4993141;28;11561;-65
2024/01/14 08:26:18;;;;;;;;;13.00;13.00;;;;;4.30;94.49;101093.59;4991828;28;11567;-65
2024/01/14 08:28:45;;;;;;;;;18.50;16.00;;;;;4.32;94.48;101083.59;4990624;28;11568;-65
2024/01/14 08:31:11;;;;;;;;;21.00;18.75;;;;;4.32;94.99;101075.63;4991733;28;11607;-65
2024/01/14 08:33:42;;;;;;;;;28.00;19.00;;;;;4.32;94.55;101083.59;4984746;28;11613;-65
2024/01/14 08:36:10;;;;;;;;;20.75;17.25;;;;;4.31;94.69;101081.94;4990222;28;12346;-65
2024/01/14 08:38:36;;;;;;;;;19.75;16.75;;;;;4.30;94.01;101088.25;4986733;28;12284;-66
2024/01/14 08:41:05;;;;;;;;;20.75;15.75;;;;;4.26;94.19;101078.88;4982370;28;11642;-65
2024/01/14 08:43:31;;;;;;;;;15.75;13.25;;;;;4.25;94.38;101079.00;4988552;28;11584;-65
2024/01/14 08:45:58;;;;;;;;;13.00;13.00;;;;;4.25;94.34;101074.53;4986095;28;11592;-66
2024/01/14 08:48:24;;;;;;;;;10.50;10.50;;;;;4.28;94.05;101079.56;4989605;28;11558;-65
2024/01/14 08:50:53;;;;;;;;;10.50;10.50;;;;;4.29;94.53;101059.91;4988996;28;11519;-66
2024/01/14 08:53:20;;;;;;;;;11.00;10.25;;;;;4.31;94.55;101067.78;4989728;28;11558;-66
2024/01/14 08:55:46;;;;;;;;;8.25;7.50;;;;;4.36;94.37;101058.34;4989772;28;12290;-66
2024/01/14 08:58:13;;;;;;;;;7.50;7.50;;;;;4.41;94.50;101056.06;4990469;28;11603;-66
2024/01/14 09:00:39;;;;;;;;;7.00;5.75;;;;;4.37;94.42;101053.84;4988619;28;11583;-68
2024/01/14 09:03:06;;;;;;;;;6.00;5.25;;;;;4.38;94.24;101048.38;4988802;28;11491;-66
2024/01/14 09:05:33;;;;;;;;;3.00;3.00;;;;;4.40;93.97;101046.41;4989213;28;11592;-67
2024/01/14 09:07:59;;;;;;;;;1.50;1.50;;;;;4.47;94.27;101038.66;4990070;28;11440;-66
2024/01/14 09:10:26;;;;;;;;;2.00;2.00;;;;;4.47;94.09;101033.31;4971313;28;11421;-67
2024/01/14 09:12:52;;;;;;;;;1.25;1.25;;;;;4.52;93.74;101038.19;4989779;28;11507;-65
2024/01/14 09:15:20;;;;;;;;;1.00;1.00;;;;;4.52;93.79;101036.38;4990378;28;11454;-66
2024/01/14 09:17:47;;;;;;;;;4.00;4.00;;;;;4.44;94.23;101031.78;4999521;28;11596;-67
2024/01/14 09:20:13;;;;;;;;;2.00;2.00;;;;;4.46;93.85;101031.66;4988363;28;11469;-66
2024/01/14 09:22:40;;;;;;;;;1.25;1.25;;;;;4.50;93.68;101029.50;4988766;28;11464;-66
2024/01/14 09:25:07;;;;;;;;;1.50;1.50;;;;;4.53;94.02;101027.38;4989917;28;11469;-65
2024/01/14 09:27:37;;;;;;;;;1.00;1.00;;;;;4.60;94.18;101022.28;5002296;28;11457;-66
2024/01/14 09:30:04;;;;;;;;;2.00;1.00;;;;;4.59;94.03;101020.63;4986279;28;11540;-65
2024/01/14 09:32:31;;;;;;;;;1.25;1.25;;;;;4.56;93.83;101028.91;4996667;28;11609;-67
2024/01/14 09:34:58;;;;;;;;;2.00;2.00;;;;;4.56;93.34;101026.25;4985986;28;11483;-63
2024/01/14 09:37:24;;;;;;;;;2.50;2.50;;;;;4.56;93.98;101015.56;4985280;28;11460;-65
2024/01/14 09:39:51;;;;;;;;;2.00;2.00;;;;;4.56;94.01;101018.25;4988746;28;11616;-66
2024/01/14 09:42:20;;;;;;;;;2.00;2.00;;;;;4.59;93.53;101017.94;4972860;28;11597;-66
2024/01/14 09:44:47;;;;;;;;;1.00;1.00;;;;;4.62;92.86;101023.81;4990512;28;11458;-65
2024/01/14 09:47:16;;;;;;;;;1.00;1.00;;;;;4.60;92.95;101017.78;4990524;28;11444;-66
2024/01/14 09:49:43;;;;;;;;;1.25;1.25;;;;;4.64;92.54;101018.31;4990367;28;11461;-66
2024/01/14 09:52:11;;;;;;;;;1.00;1.00;;;;;4.71;92.76;101011.41;4983481;28;11507;-69
2024/01/14 09:54:37;;;;;;;;;2.00;2.00;;;;;4.78;92.06;101011.63;4987245;28;11526;-66
2024/01/14 09:57:09;;;;;;;;;2.50;1.25;;;;;4.81;91.94;101006.00;4987000;28;11468;-65
2024/01/14 09:59:37;;;;;;;;;2.00;2.00;;;;;4.97;92.98;101011.47;4980847;28;11493;-66
2024/01/14 10:02:04;;;;;;;;;2.00;2.00;;;;;5.25;93.19;101001.53;4985623;28;11604;-67
2024/01/14 10:04:31;;;;;;;;;10.25;6.00;;;;;5.37;92.11;101005.59;5004124;28;11584;-67
2024/01/14 10:06:58;;;;;;;;;10.25;9.75;;;;;5.51;91.98;101006.03;4987187;28;11481;-67
2024/01/14 10:09:25;;;;;;;;;14.00;10.00;;;;;5.68;91.61;101005.97;4986786;28;11519;-66
2024/01/14 10:11:52;;;;;;;;;13.00;10.50;;;;;5.73;90.54;101010.84;4989953;28;11445;-66
2024/01/14 10:14:24;;;;;;;;;23.75;18.00;;;;;5.69;89.62;100998.81;4989012;28;11670;-67
2024/01/14 10:16:51;;;;;;;;;20.25;19.50;;;;;5.75;89.33;101002.66;4989022;28;11635;-67
2024/01/14 10:19:22;;;;;;;;;24.00;22.50;;;;;5.84;89.53;101007.06;4986837;28;11600;-67
2024/01/14 10:21:52;;;;;;;;;27.25;24.25;;;;;5.77;88.29;101000.69;4988767;28;11521;-68
2024/01/14 10:24:39;;;;;;;;;30.00;27.50;;;;;5.70;88.88;100995.13;4988840;28;11541;-67
2024/01/14 10:27:05;;;;;;;;;30.00;24.00;;;;;5.74;88.90;100993.81;4988904;28;11528;-67
2024/01/14 10:29:32;;;;;;;;;27.00;24.00;;;;;5.79;89.17;100985.31;4989324;28;11530;-66
2024/01/14 10:31:58;;;;;;;;;36.50;30.75;;;;;5.76;88.40;100988.34;4996117;28;11575;-67
2024/01/14 10:34:25;;;;;;;;;40.75;29.00;;;;;5.65;89.24;100982.25;4988176;28;11603;-67
2024/01/14 10:36:59;;;;;;;;;28.75;25.50;;;;;5.57;89.16;100976.88;4985774;28;11574;-67
2024/01/14 10:39:32;;;;;;;;;37.00;34.25;;;;;5.41;89.04;100969.59;4987618;28;11612;-67
2024/01/14 10:42:00;;;;;;;;;31.50;26.75;;;;;5.35;89.34;100964.06;4988003;28;11601;-67
2024/01/14 10:44:27;;;;;;;;;40.50;34.75;;;;;5.24;90.16;100962.50;4988344;28;11696;-68
2024/01/14 10:46:56;;;;;;;;;38.25;32.25;;;;;5.21;90.87;100947.63;5003696;28;11604;-67
2024/01/14 10:49:25;;;;;;;;;33.75;33.25;;;;;5.26;91.14;100947.13;4984601;28;11695;-67
2024/01/14 10:52:07;;;;;;;;;35.00;29.25;;;;;5.34;91.21;100943.69;4988961;28;12385;-68
2024/01/14 10:54:42;;;;;;;;;37.50;31.25;;;;;5.34;91.56;100943.69;4991588;28;11589;-68
2024/01/14 10:57:30;;;;;;;;;34.25;30.25;;;;;5.36;91.59;100939.88;4991054;28;11605;-67
2024/01/14 11:00:06;;;;;;;;;38.50;29.75;;;;;5.39;91.75;100928.06;4985106;28;11649;-68
2024/01/14 11:02:34;;;;;;;;;30.75;28.50;;;;;5.36;91.81;100923.88;4989394;28;11618;-66
2024/01/14 11:05:08;;;;;;;;;32.00;26.00;;;;;5.33;91.79;100921.50;4989222;28;11662;-68
2024/01/14 11:07:36;;;;;;;;;26.25;21.50;;;;;5.38;92.60;100913.84;4989228;28;11671;-67
2024/01/14 11:10:04;;;;;;;;;24.00;21.75;;;;;5.35;92.76;100910.69;4991247;28;11699;-67
2024/01/14 11:13:02;;;;;;;;;17.00;17.00;;;;;5.36;91.98;100902.50;5006294;28;11533;-67
2024/01/14 11:15:37;;;;;;;;;25.25;21.25;;;;;5.34;92.55;100892.97;4991354;28;11469;-67
2024/01/14 11:18:15;;;;;;;;;26.50;22.75;;;;;5.37;92.22;100890.81;4990122;28;11628;-68
2024/01/14 11:20:45;;;;;;;;;18.75;17.50;;;;;5.39;92.42;100893.34;4984066;28;11587;-67
2024/01/14 11:23:33;;;;;;;;;22.50;18.50;;;;;5.38;92.40;100884.50;4986730;28;11579;-67
2024/01/14 11:26:00;;;;;;;;;21.25;18.00;;;;;5.37;92.38;100876.66;4988424;28;11518;-67
2024/01/14 11:28:27;;;;;;;;;18.00;17.00;;;;;5.36;92.31;100880.31;4990395;28;11522;-68
2024/01/14 11:30:55;;;;;;;;;22.00;15.25;;;;;5.39;92.50;100880.00;4988857;28;11526;-68